createdAt,value
2023-02-19T00:01:47.575Z,48.90
2023-02-19T00:04:17.307Z,46.91
2023-02-19T00:06:45.779Z,50.22
2023-02-19T00:09:14.922Z,50.52
2023-02-19T00:11:42.798Z,50.71
2023-02-19T00:14:14.782Z,51.14
2023-02-19T00:16:42.136Z,51.17
2023-02-19T00:19:14.133Z,50.88
2023-02-19T00:21:41.492Z,51.41
2023-02-19T00:24:11.296Z,50.94
2023-02-19T00:26:40.820Z,50.99
2023-02-19T00:29:12.395Z,51.05
2023-02-19T00:31:40.459Z,51.38
2023-02-19T00:34:08.110Z,51.51
2023-02-19T00:36:38.154Z,51.73
2023-02-19T00:39:08.001Z,51.31
2023-02-19T00:41:35.439Z,51.00
2023-02-19T00:44:06.257Z,50.76
2023-02-19T00:46:45.992Z,50.72
2023-02-19T00:49:22.525Z,50.71
2023-02-19T00:51:52.206Z,50.23
2023-02-19T00:54:20.411Z,50.07
2023-02-19T00:56:47.718Z,50.11
2023-02-19T00:59:15.875Z,49.97
2023-02-19T01:01:44.662Z,50.04
2023-02-19T01:04:12.298Z,50.02
2023-02-19T01:06:39.585Z,49.74
2023-02-19T01:09:07.859Z,49.82
2023-02-19T01:11:35.306Z,49.79
2023-02-19T01:14:03.633Z,49.77
2023-02-19T01:16:31.221Z,49.70
2023-02-19T01:18:58.945Z,49.86
2023-02-19T01:21:28.787Z,49.69
2023-02-19T01:23:57.454Z,49.29
2023-02-19T01:26:30.263Z,49.42
2023-02-19T01:28:58.370Z,49.61
2023-02-19T01:31:26.188Z,49.09
2023-02-19T01:33:56.607Z,49.29
2023-02-19T01:36:24.898Z,48.33
2023-02-19T01:38:52.379Z,48.53
2023-02-19T01:41:23.023Z,48.71
2023-02-19T01:44:05.245Z,48.72
2023-02-19T01:46:42.669Z,48.35
2023-02-19T01:49:18.739Z,48.11
2023-02-19T01:51:55.976Z,47.95
2023-02-19T01:54:26.569Z,48.03
2023-02-19T01:56:54.619Z,47.71
2023-02-19T01:59:21.901Z,47.89
2023-02-19T02:01:49.667Z,47.72
2023-02-19T02:04:18.759Z,47.73
2023-02-19T02:06:57.453Z,47.71
2023-02-19T02:09:46.761Z,47.55
2023-02-19T02:12:14.279Z,47.43
2023-02-19T02:14:47.474Z,47.53
2023-02-19T02:17:38.169Z,47.36
2023-02-19T02:20:08.101Z,47.40
2023-02-19T02:22:47.143Z,47.49
2023-02-19T02:25:17.382Z,47.10
2023-02-19T02:27:53.744Z,47.15
2023-02-19T02:30:56.099Z,47.19
2023-02-19T02:33:49.438Z,47.07
2023-02-19T02:36:54.568Z,47.13
2023-02-19T02:39:26.431Z,46.96
2023-02-19T02:42:17.816Z,46.89
2023-02-19T02:45:12.844Z,47.03
2023-02-19T02:47:56.763Z,47.09
2023-02-19T02:50:27.687Z,46.82
2023-02-19T02:53:21.752Z,46.64
2023-02-19T02:55:53.302Z,46.95
2023-02-19T02:58:23.461Z,46.90
2023-02-19T03:01:18.433Z,46.73
2023-02-19T03:03:48.687Z,46.81
2023-02-19T03:06:19.982Z,46.74
2023-02-19T03:09:30.286Z,46.70
2023-02-19T03:12:22.364Z,46.55
2023-02-19T03:15:12.732Z,46.40
2023-02-19T03:18:05.486Z,46.48
2023-02-19T03:20:35.620Z,46.50
2023-02-19T03:23:03.094Z,46.49
2023-02-19T03:25:54.426Z,46.24
2023-02-19T03:28:53.951Z,46.30
2023-02-19T03:31:24.667Z,46.53
2023-02-19T03:33:58.161Z,46.24
2023-02-19T03:36:32.627Z,46.11
2023-02-19T03:39:04.649Z,46.16
2023-02-19T03:41:38.043Z,46.31
2023-02-19T03:44:52.613Z,46.18
2023-02-19T03:47:30.301Z,46.35
2023-02-19T03:50:12.945Z,46.04
2023-02-19T03:52:46.346Z,46.19
2023-02-19T03:55:18.164Z,46.10
2023-02-19T03:57:54.122Z,46.18
2023-02-19T04:00:45.264Z,46.22
2023-02-19T04:03:37.567Z,46.23
2023-02-19T04:06:14.536Z,46.18
2023-02-19T04:08:47.224Z,46.01
2023-02-19T04:11:16.974Z,46.07
2023-02-19T04:14:13.465Z,46.03
2023-02-19T04:16:43.784Z,46.16
2023-02-19T04:19:16.761Z,46.04
2023-02-19T04:21:46.580Z,45.98
2023-02-19T04:24:28.061Z,46.09
2023-02-19T04:26:56.048Z,45.97
2023-02-19T04:29:23.457Z,45.92
2023-02-19T04:31:50.913Z,45.88
2023-02-19T04:34:18.274Z,45.96
2023-02-19T04:36:45.778Z,45.99
2023-02-19T04:39:13.088Z,46.07
2023-02-19T04:41:40.468Z,45.89
2023-02-19T04:44:07.761Z,46.03
2023-02-19T04:46:35.095Z,45.88
2023-02-19T04:49:02.367Z,45.86
2023-02-19T04:51:29.627Z,46.10
2023-02-19T04:53:56.959Z,45.95
2023-02-19T04:56:24.293Z,45.96
2023-02-19T04:58:51.678Z,45.71
2023-02-19T05:01:18.922Z,45.98
2023-02-19T05:03:46.226Z,45.79
2023-02-19T05:06:14.257Z,45.86
2023-02-19T05:08:41.739Z,45.81
2023-02-19T05:11:11.229Z,45.74
2023-02-19T05:13:40.007Z,45.91
2023-02-19T05:16:16.077Z,45.97
2023-02-19T05:18:45.289Z,45.99
2023-02-19T05:21:13.121Z,46.02
2023-02-19T05:23:41.105Z,45.98
2023-02-19T05:26:17.140Z,46.00
2023-02-19T05:28:48.776Z,45.79
2023-02-19T05:31:16.744Z,45.72
2023-02-19T05:33:45.762Z,45.86
2023-02-19T05:36:14.206Z,45.71
2023-02-19T05:38:41.815Z,45.77
2023-02-19T05:41:17.579Z,45.74
2023-02-19T05:43:46.501Z,45.77
2023-02-19T05:46:16.821Z,45.69
2023-02-19T05:48:44.151Z,45.83
2023-02-19T05:51:14.121Z,45.70
2023-02-19T05:53:42.109Z,45.61
2023-02-19T05:56:34.933Z,45.47
2023-02-19T05:59:20.405Z,45.43
2023-02-19T06:01:48.951Z,45.49
2023-02-19T06:04:17.253Z,45.33
2023-02-19T06:06:44.841Z,45.39
2023-02-19T06:09:12.718Z,45.40
2023-02-19T06:11:40.546Z,45.35
2023-02-19T06:14:07.794Z,45.39
2023-02-19T06:16:35.146Z,45.37
2023-02-19T06:19:04.206Z,45.22
2023-02-19T06:21:31.728Z,45.35
2023-02-19T06:23:59.012Z,45.40
2023-02-19T06:26:26.602Z,45.42
2023-02-19T06:28:54.659Z,45.27
2023-02-19T06:31:23.422Z,45.31
2023-02-19T06:33:51.000Z,45.16
2023-02-19T06:36:20.342Z,45.13
2023-02-19T06:38:48.016Z,45.17
2023-02-19T06:41:15.497Z,45.42
2023-02-19T06:43:43.138Z,45.15
2023-02-19T06:46:11.527Z,45.28
2023-02-19T06:48:40.407Z,45.22
2023-02-19T06:51:07.985Z,45.26
2023-02-19T06:53:35.322Z,45.12
2023-02-19T06:56:20.800Z,45.12
2023-02-19T06:58:48.213Z,45.07
2023-02-19T07:01:15.574Z,45.06
2023-02-19T07:03:43.097Z,45.01
2023-02-19T07:06:10.487Z,44.98
2023-02-19T07:08:37.834Z,45.04
2023-02-19T07:11:05.317Z,44.85
2023-02-19T07:13:32.753Z,45.19
2023-02-19T07:16:02.475Z,44.56
2023-02-19T07:18:30.761Z,45.01
2023-02-19T07:21:10.061Z,44.88
2023-02-19T07:23:38.047Z,44.82
2023-02-19T07:26:10.129Z,44.93
2023-02-19T07:28:37.439Z,44.65
2023-02-19T07:31:05.099Z,44.96
2023-02-19T07:33:32.435Z,44.86
2023-02-19T07:35:59.690Z,44.86
2023-02-19T07:38:27.577Z,45.01
2023-02-19T07:40:56.990Z,45.07
2023-02-19T07:43:25.989Z,45.00
2023-02-19T07:45:53.499Z,45.22
2023-02-19T07:48:21.387Z,45.31
2023-02-19T07:50:53.044Z,45.29
2023-02-19T07:53:21.308Z,45.20
2023-02-19T07:55:48.592Z,45.39
2023-02-19T07:58:16.288Z,45.31
2023-02-19T08:00:44.472Z,45.36
2023-02-19T08:03:11.895Z,45.40
2023-02-19T08:05:41.051Z,45.33
2023-02-19T08:08:10.187Z,45.62
2023-02-19T08:10:56.043Z,45.36
2023-02-19T08:13:25.313Z,45.13
2023-02-19T08:15:55.131Z,45.13
2023-02-19T08:18:29.155Z,45.36
2023-02-19T08:20:57.730Z,45.47
2023-02-19T08:23:26.032Z,45.67
2023-02-19T08:25:56.588Z,45.44
2023-02-19T08:28:24.378Z,45.59
2023-02-19T08:30:51.976Z,44.26
2023-02-19T08:33:21.565Z,45.19
2023-02-19T08:35:48.870Z,45.50
2023-02-19T08:38:18.945Z,45.46
2023-02-19T08:40:46.271Z,45.33
2023-02-19T08:43:16.496Z,45.36
2023-02-19T08:45:45.886Z,45.45
2023-02-19T08:48:13.560Z,45.44
2023-02-19T08:50:41.100Z,44.99
2023-02-19T08:53:08.651Z,45.27
2023-02-19T08:55:38.546Z,45.27
2023-02-19T08:58:05.858Z,45.11
2023-02-19T09:00:33.197Z,45.05
2023-02-19T09:03:03.405Z,45.15
2023-02-19T09:05:30.704Z,44.87
2023-02-19T09:07:57.906Z,44.92
2023-02-19T09:10:25.184Z,45.01
2023-02-19T09:12:52.448Z,44.73
2023-02-19T09:15:19.727Z,44.95
2023-02-19T09:17:54.157Z,44.87
2023-02-19T09:20:21.453Z,44.79
2023-02-19T09:22:48.784Z,45.08
2023-02-19T09:25:16.246Z,45.00
2023-02-19T09:27:43.657Z,45.07
2023-02-19T09:30:11.188Z,45.55
2023-02-19T09:32:38.410Z,45.44
2023-02-19T09:35:06.129Z,45.22
2023-02-19T09:37:34.228Z,44.42
2023-02-19T09:40:01.546Z,43.47
2023-02-19T09:42:31.292Z,45.43
2023-02-19T09:45:01.558Z,45.31
2023-02-19T09:47:31.931Z,45.31
2023-02-19T09:50:06.040Z,45.51
2023-02-19T09:52:41.676Z,44.88
2023-02-19T09:55:16.108Z,44.99
2023-02-19T09:57:44.960Z,44.06
2023-02-19T10:00:12.482Z,45.13
2023-02-19T10:02:39.746Z,45.30
2023-02-19T10:05:16.950Z,45.14
2023-02-19T10:07:46.750Z,45.07
2023-02-19T10:10:13.953Z,45.44
2023-02-19T10:12:46.773Z,45.46
2023-02-19T10:15:39.666Z,45.60
2023-02-19T10:18:10.076Z,45.68
2023-02-19T10:20:38.746Z,45.78
2023-02-19T10:23:08.585Z,45.67
2023-02-19T10:25:37.332Z,45.71
2023-02-19T10:28:06.821Z,45.54
2023-02-19T10:30:36.073Z,45.76
2023-02-19T10:33:10.588Z,45.69
2023-02-19T10:35:57.902Z,45.95
2023-02-19T10:38:39.070Z,45.70
2023-02-19T10:41:21.277Z,45.49
2023-02-19T10:44:02.629Z,45.69
2023-02-19T10:46:34.669Z,46.40
2023-02-19T10:49:06.235Z,45.42
2023-02-19T10:51:38.271Z,45.13
2023-02-19T10:54:24.393Z,45.01
2023-02-19T10:56:51.630Z,44.99
2023-02-19T10:59:18.895Z,44.73
2023-02-19T11:02:06.266Z,45.04
2023-02-19T11:04:35.562Z,44.67
2023-02-19T11:07:18.127Z,44.95
2023-02-19T11:09:49.500Z,44.95
2023-02-19T11:12:26.898Z,45.07
2023-02-19T11:14:54.673Z,44.66
2023-02-19T11:17:21.816Z,45.01
2023-02-19T11:19:53.725Z,45.08
2023-02-19T11:22:41.947Z,44.84
2023-02-19T11:25:15.345Z,45.07
2023-02-19T11:27:57.818Z,46.19
2023-02-19T11:30:33.874Z,46.97
2023-02-19T11:33:19.749Z,47.15
2023-02-19T11:35:48.262Z,46.10
2023-02-19T11:38:18.904Z,46.60
2023-02-19T11:40:46.122Z,46.60
2023-02-19T11:43:22.968Z,46.72
2023-02-19T11:46:09.759Z,46.75
2023-02-19T11:49:09.405Z,46.45
2023-02-19T11:52:00.592Z,46.86
2023-02-19T11:54:52.064Z,45.97
2023-02-19T11:57:42.746Z,45.92
2023-02-19T12:00:24.126Z,46.11
2023-02-19T12:03:29.540Z,46.04
2023-02-19T12:05:56.726Z,46.76
2023-02-19T12:08:33.076Z,46.28
2023-02-19T12:11:09.408Z,46.80
2023-02-19T12:13:36.673Z,47.42
2023-02-19T12:16:19.696Z,47.20
2023-02-19T12:18:59.114Z,46.70
2023-02-19T12:21:54.329Z,45.96
2023-02-19T12:24:40.147Z,46.37
2023-02-19T12:27:28.972Z,46.43
2023-02-19T12:30:33.885Z,46.28
2023-02-19T12:33:38.507Z,46.37
2023-02-19T12:36:14.571Z,46.40
2023-02-19T12:38:47.952Z,46.68
2023-02-19T12:41:27.386Z,46.26
2023-02-19T12:44:04.366Z,46.04
2023-02-19T12:46:36.577Z,46.20
2023-02-19T12:49:15.537Z,46.56
2023-02-19T12:51:47.449Z,46.67
2023-02-19T12:54:17.449Z,46.71
2023-02-19T12:57:12.938Z,46.64
2023-02-19T12:59:55.284Z,47.30
2023-02-19T13:02:44.411Z,47.34
2023-02-19T13:05:30.095Z,47.65
2023-02-19T13:08:05.328Z,47.28
2023-02-19T13:10:36.661Z,47.51
2023-02-19T13:13:10.213Z,47.69
2023-02-19T13:15:41.789Z,47.53
2023-02-19T13:18:30.158Z,47.16
2023-02-19T13:20:58.253Z,47.70
2023-02-19T13:23:47.719Z,47.45
2023-02-19T13:26:33.308Z,47.54
2023-02-19T13:29:26.554Z,47.49
2023-02-19T13:32:05.671Z,47.53
2023-02-19T13:34:48.083Z,47.38
2023-02-19T13:37:16.678Z,47.70
2023-02-19T13:39:50.119Z,48.26
2023-02-19T13:42:32.787Z,47.71
2023-02-19T13:45:03.782Z,47.73
2023-02-19T13:47:59.861Z,47.64
2023-02-19T13:50:28.751Z,47.73
2023-02-19T13:52:59.298Z,47.64
2023-02-19T13:55:42.533Z,47.87
2023-02-19T13:58:58.589Z,47.80
2023-02-19T14:01:53.244Z,48.25
2023-02-19T14:04:41.674Z,48.07
2023-02-19T14:07:08.919Z,48.37
2023-02-19T14:09:36.105Z,49.88
2023-02-19T14:12:20.018Z,50.60
2023-02-19T14:14:51.800Z,51.40
2023-02-19T14:17:48.322Z,51.84
2023-02-19T14:20:15.489Z,52.50
2023-02-19T14:22:57.792Z,52.35
2023-02-19T14:25:29.093Z,52.14
2023-02-19T14:28:30.128Z,52.17
2023-02-19T14:31:11.358Z,52.31
2023-02-19T14:33:44.761Z,52.17
2023-02-19T14:36:53.180Z,52.14
2023-02-19T14:39:31.247Z,52.13
2023-02-19T14:42:05.738Z,52.26
2023-02-19T14:44:47.298Z,52.78
2023-02-19T14:47:18.281Z,52.39
2023-02-19T14:49:49.825Z,51.59
2023-02-19T14:52:40.589Z,52.25
2023-02-19T14:55:20.795Z,51.65
2023-02-19T14:57:50.173Z,52.02
2023-02-19T15:00:39.638Z,51.95
2023-02-19T15:03:24.117Z,51.32
2023-02-19T15:05:57.136Z,51.65
2023-02-19T15:08:30.939Z,51.41
2023-02-19T15:10:59.063Z,51.60
2023-02-19T15:13:29.200Z,51.31
2023-02-19T15:15:57.974Z,51.47
2023-02-19T15:18:26.926Z,51.09
2023-02-19T15:21:05.762Z,51.09
2023-02-19T15:23:35.902Z,50.98
2023-02-19T15:26:03.371Z,50.50
2023-02-19T15:28:33.259Z,50.60
2023-02-19T15:31:00.528Z,50.47
2023-02-19T15:33:28.258Z,50.45
2023-02-19T15:35:59.026Z,50.56
2023-02-19T15:38:27.074Z,50.31
2023-02-19T15:40:57.723Z,50.25
2023-02-19T15:43:29.629Z,49.93
2023-02-19T15:46:03.991Z,50.31
2023-02-19T15:48:38.861Z,49.96
2023-02-19T15:51:13.751Z,49.92
2023-02-19T15:53:53.585Z,49.83
2023-02-19T15:56:32.284Z,49.95
2023-02-19T15:59:11.862Z,50.00
2023-02-19T16:01:39.963Z,49.83
2023-02-19T16:04:13.994Z,49.58
2023-02-19T16:07:01.999Z,49.42
2023-02-19T16:09:35.791Z,49.78
2023-02-19T16:12:19.474Z,49.55
2023-02-19T16:14:46.764Z,49.69
2023-02-19T16:17:16.521Z,49.46
2023-02-19T16:19:43.931Z,49.15
2023-02-19T16:22:13.573Z,49.42
2023-02-19T16:24:53.564Z,49.46
2023-02-19T16:27:31.719Z,49.20
2023-02-19T16:30:10.493Z,49.38
2023-02-19T16:32:37.783Z,49.06
2023-02-19T16:35:26.239Z,49.25
2023-02-19T16:37:58.653Z,49.01
2023-02-19T16:40:47.450Z,49.12
2023-02-19T16:43:14.748Z,48.82
2023-02-19T16:45:46.904Z,48.83
2023-02-19T16:48:14.432Z,48.60
2023-02-19T16:50:42.320Z,48.94
2023-02-19T16:53:20.705Z,48.71
2023-02-19T16:55:48.644Z,48.67
2023-02-19T16:58:15.932Z,48.55
2023-02-19T17:00:43.376Z,48.71
2023-02-19T17:03:14.494Z,48.87
2023-02-19T17:05:42.393Z,48.33
2023-02-19T17:08:34.850Z,48.31
2023-02-19T17:11:04.435Z,48.28
2023-02-19T17:13:31.910Z,48.40
2023-02-19T17:15:59.563Z,48.16
2023-02-19T17:18:27.108Z,48.26
2023-02-19T17:21:05.724Z,47.95
2023-02-19T17:23:32.967Z,48.07
2023-02-19T17:26:00.212Z,47.99
2023-02-19T17:28:27.567Z,47.95
2023-02-19T17:30:54.834Z,48.02
2023-02-19T17:33:22.077Z,47.74
2023-02-19T17:35:49.263Z,47.81
2023-02-19T17:38:16.448Z,47.75
2023-02-19T17:40:45.182Z,47.81
2023-02-19T17:43:12.408Z,47.41
2023-02-19T17:45:39.636Z,47.51
2023-02-19T17:48:06.929Z,47.60
2023-02-19T17:50:34.213Z,47.82
2023-02-19T17:53:01.535Z,47.74
2023-02-19T17:55:28.893Z,47.42
2023-02-19T17:57:56.741Z,47.43
2023-02-19T18:00:27.086Z,47.54
2023-02-19T18:02:54.940Z,47.50
2023-02-19T18:05:22.901Z,47.34
2023-02-19T18:07:50.903Z,47.29
2023-02-19T18:10:19.772Z,47.40
2023-02-19T18:12:47.302Z,47.34
2023-02-19T18:15:23.042Z,47.19
2023-02-19T18:17:50.564Z,47.17
2023-02-19T18:20:21.878Z,47.01
2023-02-19T18:22:49.214Z,47.13
2023-02-19T18:25:17.640Z,47.01
2023-02-19T18:27:45.005Z,47.07
2023-02-19T18:30:15.491Z,47.01
2023-02-19T18:32:42.787Z,47.13
2023-02-19T18:35:10.082Z,46.98
2023-02-19T18:37:37.337Z,46.89
2023-02-19T18:40:05.836Z,46.76
2023-02-19T18:42:33.272Z,46.79
2023-02-19T18:45:00.582Z,46.93
2023-02-19T18:47:27.857Z,46.81
2023-02-19T18:49:57.488Z,46.72
2023-02-19T18:52:25.735Z,46.56
2023-02-19T18:54:55.262Z,46.80
2023-02-19T18:57:23.967Z,46.71
2023-02-19T18:59:51.459Z,46.71
2023-02-19T19:02:19.752Z,46.63
2023-02-19T19:04:52.800Z,46.47
2023-02-19T19:07:20.651Z,46.57
2023-02-19T19:09:47.922Z,46.56
2023-02-19T19:12:15.817Z,46.61
2023-02-19T19:14:43.539Z,46.35
2023-02-19T19:17:10.827Z,46.29
2023-02-19T19:19:38.254Z,46.19
2023-02-19T19:22:05.509Z,46.40
2023-02-19T19:24:32.766Z,46.41
2023-02-19T19:27:00.129Z,46.33
2023-02-19T19:29:27.807Z,46.38
2023-02-19T19:31:55.102Z,46.32
2023-02-19T19:34:22.559Z,46.35
2023-02-19T19:36:49.771Z,46.72
2023-02-19T19:39:17.092Z,46.46
2023-02-19T19:41:44.396Z,46.60
2023-02-19T19:44:12.413Z,46.73
2023-02-19T19:46:44.631Z,46.61
2023-02-19T19:49:12.274Z,46.64
2023-02-19T19:51:39.686Z,46.68
2023-02-19T19:54:08.410Z,46.64
2023-02-19T19:56:43.824Z,46.68
2023-02-19T19:59:12.753Z,46.58
2023-02-19T20:01:51.207Z,46.75
2023-02-19T20:04:21.185Z,46.56
2023-02-19T20:06:48.788Z,46.41
2023-02-19T20:09:17.733Z,46.89
2023-02-19T20:11:50.437Z,46.47
2023-02-19T20:14:19.819Z,46.54
2023-02-19T20:16:47.794Z,46.55
2023-02-19T20:19:16.771Z,46.83
2023-02-19T20:21:48.149Z,46.92
2023-02-19T20:24:26.139Z,46.71
2023-02-19T20:26:58.426Z,47.07
2023-02-19T20:29:28.713Z,47.01
2023-02-19T20:31:59.620Z,46.99
2023-02-19T20:34:27.720Z,46.91
2023-02-19T20:36:55.076Z,46.99
2023-02-19T20:39:22.715Z,46.91
2023-02-19T20:41:51.896Z,46.87
2023-02-19T20:44:19.885Z,46.93
2023-02-19T20:46:49.585Z,46.91
2023-02-19T20:49:19.308Z,46.90
2023-02-19T20:51:50.193Z,46.86
2023-02-19T20:54:18.796Z,46.77
2023-02-19T20:56:47.381Z,46.90
2023-02-19T20:59:15.955Z,46.76
2023-02-19T21:01:43.367Z,47.05
2023-02-19T21:04:11.325Z,46.87
2023-02-19T21:06:38.887Z,46.78
2023-02-19T21:09:06.501Z,46.69
2023-02-19T21:11:34.020Z,46.57
2023-02-19T21:14:01.400Z,46.54
2023-02-19T21:16:30.634Z,46.28
2023-02-19T21:18:58.893Z,46.43
2023-02-19T21:21:27.039Z,46.37
2023-02-19T21:23:55.560Z,46.29
2023-02-19T21:26:23.362Z,46.36
2023-02-19T21:28:51.754Z,46.36
2023-02-19T21:31:19.711Z,46.33
2023-02-19T21:33:47.196Z,46.30
2023-02-19T21:36:14.729Z,46.18
2023-02-19T21:38:42.112Z,46.33
2023-02-19T21:41:09.327Z,46.19
2023-02-19T21:43:36.759Z,46.17
2023-02-19T21:46:04.252Z,46.02
2023-02-19T21:48:31.624Z,45.91
2023-02-19T21:50:58.925Z,44.79
2023-02-19T21:53:26.325Z,44.60
2023-02-19T21:55:58.720Z,44.26
2023-02-19T21:58:26.728Z,44.21
2023-02-19T22:00:54.184Z,45.07
2023-02-19T22:03:21.629Z,45.18
2023-02-19T22:05:48.966Z,45.23
2023-02-19T22:08:17.510Z,45.27
2023-02-19T22:10:44.861Z,45.47
2023-02-19T22:13:12.259Z,45.46
2023-02-19T22:15:39.545Z,45.37
2023-02-19T22:18:06.858Z,45.38
2023-02-19T22:20:34.735Z,45.58
2023-02-19T22:23:02.018Z,45.33
2023-02-19T22:25:29.219Z,45.55
2023-02-19T22:27:56.501Z,45.48
2023-02-19T22:30:24.092Z,45.51
2023-02-19T22:32:51.324Z,45.45
2023-02-19T22:35:18.634Z,45.50
2023-02-19T22:37:45.955Z,45.60
2023-02-19T22:40:13.380Z,45.46
2023-02-19T22:42:40.903Z,45.44
2023-02-19T22:45:11.337Z,45.65
2023-02-19T22:47:40.019Z,45.33
2023-02-19T22:50:07.863Z,45.48
2023-02-19T22:52:35.217Z,45.54
2023-02-19T22:55:02.574Z,45.39
2023-02-19T22:57:29.872Z,45.34
2023-02-19T22:59:57.077Z,45.14
2023-02-19T23:02:24.812Z,45.12
2023-02-19T23:04:52.192Z,45.01
2023-02-19T23:07:19.448Z,44.99
2023-02-19T23:09:46.745Z,45.39
2023-02-19T23:12:14.069Z,44.93
2023-02-19T23:14:41.300Z,44.47
2023-02-19T23:17:08.694Z,44.75
2023-02-19T23:19:36.800Z,44.65
2023-02-19T23:22:04.500Z,44.55
2023-02-19T23:24:32.106Z,44.78
2023-02-19T23:27:00.576Z,44.65
2023-02-19T23:29:29.695Z,44.83
2023-02-19T23:31:57.171Z,44.80
2023-02-19T23:34:24.551Z,44.50
2023-02-19T23:36:52.404Z,44.57
2023-02-19T23:39:21.840Z,44.55
2023-02-19T23:41:54.937Z,44.74
2023-02-19T23:44:23.219Z,44.44
2023-02-19T23:46:51.793Z,44.58
2023-02-19T23:49:19.735Z,44.53
2023-02-19T23:51:47.247Z,44.59
2023-02-19T23:54:15.114Z,44.45
2023-02-19T23:56:42.528Z,44.55
2023-02-19T23:59:10.049Z,44.47
